| time (UTC) | temp F | wind direction | speed knots | gust knots | rain 1hr in | rain 24hr in | rain mn in | humidity % | barometer mb |
| 20260508065048 | 49 | 320 | 0.9 | 1.7 | 0.00 | 0.00 | 0.00 | 87 | 1017.3 |
| 20260508064529 | 48 | 326 | 0.9 | 2.6 | 0.00 | 0.00 | 0.00 | 87 | 1017.2 |
| 20260508064040 | 48 | 319 | 0.9 | 2.6 | 0.00 | 0.00 | 0.00 | 88 | 1017.2 |
| 20260508063521 | 48 | 325 | 0.9 | 1.7 | 0.00 | 0.00 | 0.00 | 88 | 1017.1 |
| 20260508063031 | 48 | 324 | 1.7 | 4.3 | 0.00 | 0.00 | 0.00 | 88 | 1017.2 |
| 20260508062528 | 48 | 331 | 0.9 | 1.7 | 0.00 | 0.00 | 0.00 | 88 | 1017.2 |
| 20260508062040 | 48 | 327 | 0.9 | 2.6 | 0.00 | 0.00 | 0.00 | 89 | 1017.1 |
| 20260508061520 | 48 | 307 | 0.9 | 1.7 | 0.00 | 0.00 | 0.00 | 89 | 1017.0 |
| 20260508061032 | 48 | 326 | 0.9 | 2.6 | 0.00 | 0.00 | 0.00 | 89 | 1017.0 |
| 20260508060544 | 48 | 319 | 0.9 | 1.7 | 0.00 | 0.00 | 0.00 | 89 | 1017.0 |
| 20260508060024 | 47 | 329 | 0.9 | 2.6 | 0.00 | 0.02 | 0.00 | 89 | 1016.9 |
| 20260508055536 | 47 | 324 | 0.9 | 4.3 | 0.00 | 0.02 | 0.00 | 89 | 1016.8 |
| 20260508055048 | 47 | 319 | 0.9 | 1.7 | 0.00 | 0.02 | 0.00 | 90 | 1016.8 |
| 20260508054528 | 47 | 325 | 0.9 | 1.7 | 0.00 | 0.02 | 0.00 | 90 | 1016.9 |
| 20260508054040 | 47 | 314 | 0.9 | 2.6 | 0.00 | 0.02 | 0.00 | 91 | 1016.8 |
| 20260508053519 | 47 | 335 | 0.9 | 1.7 | 0.00 | 0.02 | 0.00 | 91 | 1016.8 |
| 20260508053032 | 47 | 331 | 0.9 | 2.6 | 0.00 | 0.02 | 0.00 | 91 | 1016.8 |
| 20260508052544 | 47 | 327 | 0.9 | 1.7 | 0.00 | 0.02 | 0.00 | 91 | 1016.9 |
| 20260508052024 | 47 | 327 | 0.9 | 2.6 | 0.00 | 0.02 | 0.00 | 92 | 1016.8 |
| 20260508051536 | 47 | 328 | 0.9 | 2.6 | 0.00 | 0.02 | 0.00 | 92 | 1016.8 |
| 20260508051048 | 47 | 326 | 0.9 | 2.6 | 0.00 | 0.03 | 0.00 | 92 | 1016.9 |
| 20260508050528 | 47 | 322 | 1.7 | 5.2 | 0.00 | 0.04 | 0.00 | 92 | 1016.8 |
| 20260508050040 | 47 | 325 | 0.0 | 0.9 | 0.00 | 0.09 | 0.00 | 92 | 1016.8 |
| 20260508045520 | 46 | 333 | 0.9 | 2.6 | 0.00 | 0.11 | 0.00 | 92 | 1016.7 |
| 20260508045032 | 46 | 326 | 1.7 | 2.6 | 0.00 | 0.12 | 0.00 | 92 | 1016.8 |
| 20260508044024 | 46 | 319 | 0.9 | 1.7 | 0.00 | 0.12 | 0.00 | 92 | 1016.9 |
| 20260508043536 | 46 | 322 | 0.9 | 2.6 | 0.00 | 0.12 | 0.00 | 92 | 1016.8 |
| 20260508043048 | 46 | 324 | 1.7 | 2.6 | 0.00 | 0.12 | 0.00 | 92 | 1016.7 |
| 20260508042528 | 46 | 319 | 0.9 | 1.7 | 0.00 | 0.12 | 0.00 | 93 | 1016.7 |
| 20260508042040 | 46 | 330 | 0.9 | 1.7 | 0.00 | 0.12 | 0.00 | 93 | 1016.7 |
| 20260508041520 | 46 | 327 | 0.9 | 2.6 | 0.00 | 0.12 | 0.00 | 93 | 1016.6 |
| 20260508041032 | 46 | 320 | 1.7 | 2.6 | 0.00 | 0.12 | 0.00 | 93 | 1016.6 |
| 20260508040544 | 46 | 329 | 0.9 | 1.7 | 0.00 | 0.12 | 0.00 | 93 | 1016.4 |
| 20260508040024 | 46 | 327 | 0.9 | 0.9 | 0.00 | 0.12 | 0.00 | 93 | 1016.5 |
| 20260508035536 | 46 | 321 | 0.0 | 0.9 | 0.00 | 0.12 | 0.00 | 93 | 1016.3 |
| 20260508035048 | 46 | 333 | 0.0 | 0.9 | 0.00 | 0.12 | 0.00 | 93 | 1016.4 |
| 20260508034528 | 46 | 323 | 0.0 | 0.9 | 0.00 | 0.12 | 0.00 | 93 | 1016.2 |
| 20260508034040 | 46 | 331 | 0.9 | 0.9 | 0.00 | 0.12 | 0.00 | 93 | 1016.1 |
| 20260508033520 | 46 | 328 | 0.0 | 0.9 | 0.00 | 0.12 | 0.00 | 93 | 1016.2 |
| 20260508033032 | 46 | 323 | 0.9 | 1.7 | 0.00 | 0.12 | 0.00 | 93 | 1016.2 |
| 20260508032544 | 46 | 347 | 0.0 | 0.9 | 0.00 | 0.12 | 0.00 | 93 | 1016.1 |
| 20260508032024 | 46 | 327 | 0.9 | 1.7 | 0.00 | 0.12 | 0.00 | 93 | 1016.3 |
| 20260508031536 | 46 | 331 | 0.9 | 1.7 | 0.00 | 0.12 | 0.00 | 92 | 1016.2 |
| 20260508031048 | 46 | 329 | 0.0 | 0.9 | 0.00 | 0.12 | 0.00 | 92 | 1016.2 |
| 20260508030528 | 46 | 333 | 0.9 | 2.6 | 0.00 | 0.12 | 0.00 | 92 | 1016.1 |
| 20260508030040 | 46 | 320 | 0.9 | 2.6 | 0.00 | 0.12 | 0.00 | 92 | 1016.1 |
| 20260508025520 | 46 | 333 | 0.9 | 1.7 | 0.00 | 0.12 | 0.00 | 92 | 1016.0 |
| 20260508025032 | 46 | 318 | 0.9 | 2.6 | 0.00 | 0.12 | 0.00 | 92 | 1015.9 |
| 20260508024544 | 46 | 325 | 0.9 | 2.6 | 0.00 | 0.12 | 0.00 | 92 | 1016.0 |
| 20260508024024 | 46 | 318 | 1.7 | 2.6 | 0.00 | 0.13 | 0.00 | 91 | 1016.0 |
| 20260508023536 | 46 | 325 | 0.9 | 2.6 | 0.00 | 0.13 | 0.00 | 91 | 1016.0 |
| 20260508023048 | 46 | 325 | 1.7 | 4.3 | 0.00 | 0.13 | 0.00 | 91 | 1016.0 |
| 20260508022528 | 46 | 327 | 0.9 | 4.3 | 0.00 | 0.13 | 0.00 | 91 | 1016.0 |
| 20260508022040 | 46 | 316 | 0.9 | 1.7 | 0.00 | 0.13 | 0.00 | 91 | 1015.9 |
| 20260508021520 | 46 | 327 | 1.7 | 4.3 | 0.00 | 0.13 | 0.00 | 91 | 1016.0 |
| 20260508021031 | 46 | 311 | 1.7 | 4.3 | 0.00 | 0.13 | 0.00 | 91 | 1015.9 |
| 20260508020545 | 46 | 325 | 0.9 | 1.7 | 0.00 | 0.13 | 0.00 | 91 | 1016.0 |
| 20260508020023 | 47 | 316 | 0.9 | 2.6 | 0.00 | 0.13 | 0.00 | 91 | 1016.0 |
| 20260508015537 | 47 | 326 | 0.9 | 2.6 | 0.00 | 0.13 | 0.00 | 91 | 1016.1 |
| 20260508015034 | 47 | 328 | 0.9 | 2.6 | 0.00 | 0.13 | 0.00 | 91 | 1016.0 |
| 20260508014544 | 47 | 307 | 0.9 | 4.3 | 0.00 | 0.13 | 0.00 | 91 | 1015.8 |
| 20260508014025 | 47 | 322 | 0.9 | 1.7 | 0.00 | 0.13 | 0.00 | 91 | 1015.8 |
| 20260508013536 | 47 | 324 | 1.7 | 4.3 | 0.00 | 0.13 | 0.00 | 91 | 1015.8 |
| 20260508013048 | 47 | 333 | 1.7 | 2.6 | 0.00 | 0.13 | 0.00 | 91 | 1015.8 |
| 20260508012528 | 47 | 316 | 1.7 | 2.6 | 0.00 | 0.13 | 0.00 | 91 | 1015.8 |
| 20260508012040 | 47 | 323 | 0.9 | 4.3 | 0.00 | 0.13 | 0.00 | 91 | 1015.8 |
| 20260508011520 | 47 | 321 | 0.9 | 2.6 | 0.00 | 0.13 | 0.00 | 91 | 1015.7 |
| 20260508011032 | 47 | 328 | 1.7 | 5.2 | 0.00 | 0.13 | 0.00 | 90 | 1015.8 |
| 20260508010544 | 47 | 327 | 1.7 | 5.2 | 0.00 | 0.13 | 0.00 | 90 | 1015.9 |
| 20260508010024 | 47 | 326 | 1.7 | 5.2 | 0.00 | 0.13 | 0.00 | 91 | 1015.9 |
| 20260508005536 | 47 | 322 | 1.7 | 5.2 | 0.00 | 0.13 | 0.00 | 91 | 1016.0 |
| 20260508005048 | 48 | 312 | 1.7 | 6.1 | 0.00 | 0.13 | 0.00 | 91 | 1016.0 |
| 20260508004528 | 48 | 322 | 1.7 | 5.2 | 0.00 | 0.13 | 0.00 | 91 | 1016.0 |
| 20260508004040 | 48 | 317 | 1.7 | 4.3 | 0.00 | 0.13 | 0.00 | 91 | 1015.8 |
| 20260508003519 | 48 | 329 | 0.9 | 2.6 | 0.00 | 0.13 | 0.00 | 91 | 1015.9 |
| 20260508003032 | 48 | 324 | 1.7 | 4.3 | 0.00 | 0.13 | 0.00 | 91 | 1015.9 |
| 20260508002544 | 48 | 321 | 1.7 | 2.6 | 0.00 | 0.13 | 0.00 | 92 | 1015.9 |
| 20260508002024 | 48 | 320 | 1.7 | 4.3 | 0.00 | 0.13 | 0.00 | 92 | 1015.8 |
| 20260508001536 | 48 | 318 | 1.7 | 4.3 | 0.00 | 0.13 | 0.00 | 92 | 1015.7 |
| 20260508001047 | 48 | 331 | 0.9 | 2.6 | 0.00 | 0.13 | 0.00 | 92 | 1015.7 |
| 20260508000528 | 48 | 322 | 0.9 | 2.6 | 0.00 | 0.13 | 0.00 | 92 | 1015.8 |
| 20260508000040 | 48 | 333 | 0.9 | 1.7 | 0.00 | 0.13 | 0.00 | 92 | 1015.8 |
| 20260507235519 | 48 | 329 | 0.9 | 4.3 | 0.00 | 0.13 | 0.00 | 92 | 1015.8 |
| 20260507235031 | 48 | 327 | 0.9 | 2.6 | 0.00 | 0.13 | 0.00 | 92 | 1015.7 |
| 20260507234543 | 48 | 320 | 0.9 | 1.7 | 0.00 | 0.13 | 0.00 | 92 | 1015.7 |
| 20260507234023 | 48 | 327 | 0.9 | 1.7 | 0.00 | 0.13 | 0.00 | 92 | 1015.7 |
| 20260507233536 | 49 | 327 | 0.0 | 0.9 | 0.00 | 0.13 | 0.00 | 92 | 1015.7 |
| 20260507233048 | 48 | 324 | 0.9 | 1.7 | 0.00 | 0.13 | 0.00 | 92 | 1015.8 |
| 20260507232528 | 48 | 320 | 0.9 | 2.6 | 0.00 | 0.13 | 0.00 | 92 | 1015.6 |
| 20260507232039 | 48 | 327 | 0.9 | 1.7 | 0.00 | 0.13 | 0.00 | 93 | 1015.7 |
| 20260507231520 | 48 | 319 | 0.9 | 1.7 | 0.00 | 0.13 | 0.00 | 93 | 1015.6 |
| 20260507231032 | 48 | 323 | 0.9 | 2.6 | 0.00 | 0.13 | 0.00 | 93 | 1015.7 |
| 20260507230528 | 48 | 324 | 0.9 | 1.7 | 0.00 | 0.13 | 0.00 | 93 | 1015.7 |
| 20260507230040 | 49 | 326 | 0.9 | 0.9 | 0.00 | 0.13 | 0.00 | 93 | 1015.6 |
| 20260507225520 | 49 | 321 | 0.9 | 2.6 | 0.00 | 0.14 | 0.00 | 93 | 1015.6 |
| 20260507225032 | 49 | 329 | 0.9 | 4.3 | 0.00 | 0.15 | 0.00 | 93 | 1015.7 |
| 20260507224544 | 49 | 325 | 0.0 | 0.9 | 0.00 | 0.15 | 0.00 | 93 | 1015.6 |
| 20260507224024 | 49 | 322 | 0.9 | 1.7 | 0.00 | 0.15 | 0.00 | 93 | 1015.6 |
| 20260507223536 | 49 | 333 | 0.9 | 2.6 | 0.00 | 0.15 | 0.00 | 93 | 1015.6 |
| 20260507223016 | 49 | 347 | 0.9 | 4.3 | 0.00 | 0.15 | 0.00 | 93 | 1015.5 |
| 20260507222528 | 49 | 332 | 0.9 | 4.3 | 0.00 | 0.17 | 0.00 | 93 | 1015.5 |
| 20260507222040 | 49 | 328 | 0.9 | 2.6 | 0.00 | 0.17 | 0.00 | 93 | 1015.5 |
| 20260507221519 | 49 | 326 | 0.9 | 1.7 | 0.00 | 0.17 | 0.00 | 93 | 1015.4 |
| 20260507221032 | 49 | 326 | 0.9 | 1.7 | 0.00 | 0.17 | 0.00 | 93 | 1015.3 |
| 20260507220545 | 49 | 327 | 0.9 | 2.6 | 0.00 | 0.17 | 0.00 | 93 | 1015.3 |
| 20260507220024 | 49 | 324 | 0.9 | 0.9 | 0.00 | 0.17 | 0.00 | 93 | 1015.5 |
| 20260507215520 | 49 | 323 | 0.0 | 0.9 | 0.00 | 0.18 | 0.18 | 93 | 1015.4 |
| 20260507215033 | 49 | 327 | 0.9 | 1.7 | 0.00 | 0.18 | 0.18 | 93 | 1015.4 |
| 20260507214544 | 49 | 319 | 0.9 | 2.6 | 0.00 | 0.18 | 0.18 | 93 | 1015.3 |
| 20260507214024 | 49 | 318 | 0.0 | 0.9 | 0.00 | 0.19 | 0.18 | 93 | 1015.2 |
| 20260507213536 | 49 | 327 | 0.9 | 1.7 | 0.00 | 0.19 | 0.18 | 93 | 1015.2 |
| 20260507213015 | 49 | 327 | 0.0 | 1.7 | 0.00 | 0.20 | 0.18 | 93 | 1015.1 |
| 20260507212528 | 49 | 325 | 0.9 | 1.7 | 0.00 | 0.22 | 0.18 | 93 | 1015.2 |
| 20260507212039 | 49 | 329 | 0.9 | 1.7 | 0.00 | 0.22 | 0.18 | 93 | 1015.2 |
| 20260507211519 | 49 | 323 | 0.0 | 0.9 | 0.00 | 0.22 | 0.18 | 93 | 1015.2 |
| 20260507211032 | 49 | 339 | 0.0 | 0.9 | 0.00 | 0.22 | 0.18 | 93 | 1015.1 |
| 20260507210545 | 49 | 325 | 0.9 | 2.6 | 0.00 | 0.22 | 0.18 | 93 | 1015.0 |
| 20260507210024 | 49 | 318 | 0.9 | 1.7 | 0.00 | 0.22 | 0.18 | 93 | 1015.0 |
| 20260507205536 | 49 | 328 | 0.9 | 2.6 | 0.00 | 0.22 | 0.18 | 93 | 1015.1 |
| 20260507205016 | 49 | 318 | 0.9 | 1.7 | 0.00 | 0.22 | 0.18 | 93 | 1015.0 |
| 20260507204528 | 50 | 330 | 0.9 | 1.7 | 0.00 | 0.22 | 0.18 | 93 | 1015.1 |
| 20260507204039 | 49 | 326 | 0.0 | 1.7 | 0.00 | 0.22 | 0.18 | 93 | 1015.2 |
| 20260507203520 | 49 | 318 | 1.7 | 2.6 | 0.00 | 0.22 | 0.18 | 93 | 1015.2 |
| 20260507203031 | 49 | 327 | 0.9 | 1.7 | 0.00 | 0.22 | 0.18 | 94 | 1015.1 |
| 20260507202544 | 49 | 324 | 0.9 | 1.7 | 0.00 | 0.22 | 0.18 | 94 | 1015.1 |
| 20260507202023 | 50 | 327 | 0.9 | 2.6 | 0.00 | 0.22 | 0.18 | 94 | 1015.0 |
| 20260507201536 | 50 | 322 | 0.9 | 2.6 | 0.00 | 0.22 | 0.18 | 94 | 1014.9 |
| 20260507201016 | 50 | 325 | 0.9 | 2.6 | 0.00 | 0.22 | 0.18 | 94 | 1014.9 |
| 20260507200527 | 50 | 322 | 0.9 | 2.6 | 0.00 | 0.22 | 0.18 | 94 | 1014.9 |
| 20260507200041 | 50 | 320 | 0.9 | 2.6 | 0.00 | 0.22 | 0.18 | 94 | 1014.8 |
| 20260507195538 | 50 | 319 | 0.9 | 4.3 | 0.00 | 0.22 | 0.18 | 94 | 1014.8 |
| 20260507195015 | 50 | 324 | 0.9 | 1.7 | 0.00 | 0.22 | 0.18 | 94 | 1014.8 |
| 20260507194528 | 50 | 321 | 1.7 | 4.3 | 0.00 | 0.22 | 0.18 | 94 | 1014.7 |
| 20260507194040 | 50 | 309 | 0.9 | 4.3 | 0.00 | 0.22 | 0.18 | 94 | 1014.6 |
| 20260507193521 | 50 | 323 | 0.9 | 1.7 | 0.00 | 0.22 | 0.18 | 94 | 1014.6 |
| 20260507193032 | 50 | 319 | 0.9 | 2.6 | 0.00 | 0.22 | 0.18 | 94 | 1014.6 |
| 20260507192528 | 50 | 324 | 1.7 | 4.3 | 0.00 | 0.22 | 0.18 | 94 | 1014.5 |
| 20260507192039 | 50 | 317 | 0.9 | 2.6 | 0.00 | 0.22 | 0.18 | 94 | 1014.4 |
| 20260507191520 | 50 | 324 | 0.9 | 1.7 | 0.00 | 0.22 | 0.18 | 93 | 1014.3 |
| 20260507191031 | 50 | 328 | 0.9 | 2.6 | 0.00 | 0.22 | 0.18 | 93 | 1014.2 |
| 20260507190545 | 50 | 328 | 0.9 | 2.6 | 0.00 | 0.22 | 0.18 | 93 | 1014.2 |
| 20260507190024 | 50 | 324 | 0.9 | 2.6 | 0.00 | 0.22 | 0.18 | 93 | 1014.1 |
| 20260507185536 | 50 | 318 | 1.7 | 5.2 | 0.00 | 0.22 | 0.18 | 93 | 1014.1 |
| 20260507185016 | 50 | 332 | 1.7 | 6.1 | 0.00 | 0.22 | 0.18 | 93 | 1014.1 |
| 20260507184529 | 51 | 325 | 0.9 | 1.7 | 0.00 | 0.22 | 0.18 | 93 | 1014.0 |
| 20260507184040 | 51 | 320 | 0.9 | 2.6 | 0.00 | 0.22 | 0.18 | 93 | 1014.0 |
| 20260507183520 | 51 | 321 | 0.9 | 2.6 | 0.00 | 0.22 | 0.18 | 93 | 1013.9 |
| 20260507183016 | 51 | 320 | 1.7 | 2.6 | 0.00 | 0.22 | 0.18 | 92 | 1013.7 |
| 20260507182528 | 51 | 323 | 1.7 | 2.6 | 0.00 | 0.22 | 0.18 | 92 | 1013.8 |
| 20260507182039 | 51 | 305 | 1.7 | 2.6 | 0.00 | 0.22 | 0.18 | 92 | 1013.7 |
| 20260507181519 | 51 | 329 | 0.9 | 2.6 | 0.00 | 0.22 | 0.18 | 92 | 1013.7 |
| 20260507181031 | 51 | 328 | 0.0 | 0.9 | 0.00 | 0.22 | 0.18 | 92 | 1013.6 |
| 20260507180543 | 51 | 318 | 0.9 | 2.6 | 0.00 | 0.22 | 0.18 | 92 | 1013.6 |
| 20260507180024 | 52 | 319 | 1.7 | 4.3 | 0.00 | 0.22 | 0.18 | 91 | 1013.3 |
| 20260507175537 | 52 | 341 | 1.7 | 2.6 | 0.00 | 0.22 | 0.18 | 91 | 1013.3 |
| 20260507175016 | 52 | 323 | 0.9 | 4.3 | 0.00 | 0.22 | 0.18 | 91 | 1013.3 |
| 20260507174528 | 52 | 330 | 0.9 | 1.7 | 0.00 | 0.22 | 0.18 | 91 | 1013.2 |
| 20260507174040 | 52 | 326 | 0.9 | 2.6 | 0.00 | 0.22 | 0.18 | 91 | 1013.2 |
| 20260507173032 | 52 | 325 | 0.9 | 2.6 | 0.00 | 0.22 | 0.18 | 91 | 1013.1 |
| 20260507172544 | 53 | 314 | 0.9 | 1.7 | 0.00 | 0.22 | 0.18 | 90 | 1013.2 |
| 20260507172023 | 53 | 324 | 0.9 | 1.7 | 0.00 | 0.22 | 0.18 | 90 | 1013.1 |
| 20260507171522 | 53 | 325 | 0.9 | 1.7 | 0.00 | 0.22 | 0.18 | 90 | 1013.0 |
| 20260507171031 | 53 | 319 | 0.9 | 2.6 | 0.00 | 0.22 | 0.18 | 90 | 1013.0 |
| 20260507170547 | 53 | 318 | 0.9 | 2.6 | 0.00 | 0.22 | 0.18 | 90 | 1012.8 |
| 20260507170023 | 53 | 321 | 0.9 | 2.6 | 0.00 | 0.22 | 0.18 | 90 | 1012.7 |
| 20260507165535 | 53 | 317 | 0.9 | 2.6 | 0.00 | 0.22 | 0.18 | 90 | 1012.7 |
| 20260507165016 | 53 | 316 | 0.9 | 2.6 | 0.00 | 0.22 | 0.18 | 90 | 1012.7 |
| 20260507164527 | 53 | 324 | 0.9 | 1.7 | 0.00 | 0.22 | 0.18 | 90 | 1012.6 |
| 20260507164039 | 53 | 319 | 0.9 | 1.7 | 0.00 | 0.22 | 0.18 | 90 | 1012.6 |
| 20260507163519 | 53 | 342 | 0.9 | 2.6 | 0.00 | 0.22 | 0.18 | 90 | 1012.5 |
| 20260507163032 | 54 | 324 | 1.7 | 4.3 | 0.00 | 0.22 | 0.18 | 90 | 1012.4 |
| 20260507162544 | 54 | 332 | 1.7 | 4.3 | 0.00 | 0.22 | 0.18 | 90 | 1012.5 |
| 20260507162024 | 54 | 329 | 0.9 | 2.6 | 0.00 | 0.22 | 0.18 | 90 | 1012.4 |
| 20260507161535 | 54 | 324 | 0.9 | 2.6 | 0.00 | 0.22 | 0.18 | 90 | 1012.5 |
| 20260507161032 | 54 | 311 | 1.7 | 4.3 | 0.00 | 0.22 | 0.18 | 89 | 1012.4 |
| 20260507160543 | 54 | 329 | 0.9 | 1.7 | 0.00 | 0.22 | 0.18 | 89 | 1012.3 |
| 20260507160023 | 55 | 317 | 1.7 | 5.2 | 0.00 | 0.22 | 0.18 | 89 | 1012.1 |
| 20260507155535 | 55 | 306 | 0.9 | 4.3 | 0.00 | 0.22 | 0.18 | 88 | 1012.2 |
| 20260507155016 | 55 | 325 | 0.9 | 2.6 | 0.00 | 0.22 | 0.18 | 88 | 1012.2 |
| 20260507154528 | 55 | 346 | 1.7 | 2.6 | 0.00 | 0.22 | 0.18 | 88 | 1012.1 |
| 20260507154039 | 56 | 315 | 1.7 | 4.3 | 0.00 | 0.22 | 0.18 | 88 | 1012.2 |
| 20260507152527 | 56 | 334 | 1.7 | 7.0 | 0.00 | 0.22 | 0.18 | 88 | 1012.1 |
| 20260507152024 | 56 | 323 | 2.6 | 5.2 | 0.00 | 0.22 | 0.18 | 88 | 1011.9 |
| 20260507151519 | 56 | 319 | 1.7 | 6.1 | 0.00 | 0.22 | 0.18 | 88 | 1011.9 |
| 20260507151032 | 57 | 328 | 2.6 | 4.3 | 0.00 | 0.22 | 0.18 | 87 | 1011.9 |
| 20260507150544 | 58 | 349 | 1.7 | 4.3 | 0.00 | 0.22 | 0.18 | 87 | 1011.8 |
| 20260507150041 | 58 | 347 | 1.7 | 2.6 | 0.00 | 0.22 | 0.18 | 86 | 1011.8 |
| 20260507145519 | 58 | 318 | 0.9 | 2.6 | 0.00 | 0.22 | 0.18 | 86 | 1011.8 |
| 20260507145033 | 59 | 325 | 1.7 | 5.2 | 0.00 | 0.22 | 0.18 | 86 | 1011.8 |
| 20260507144529 | 59 | 327 | 1.7 | 5.2 | 0.00 | 0.22 | 0.18 | 86 | 1011.8 |
| 20260507144039 | 58 | 315 | 1.7 | 5.2 | 0.00 | 0.22 | 0.18 | 86 | 1011.9 |
| 20260507143521 | 59 | 306 | 1.7 | 5.2 | 0.00 | 0.22 | 0.18 | 85 | 1011.7 |
| 20260507143032 | 59 | 322 | 1.7 | 5.2 | 0.00 | 0.22 | 0.18 | 86 | 1011.8 |
| 20260507142544 | 59 | 324 | 1.7 | 4.3 | 0.00 | 0.22 | 0.18 | 86 | 1011.9 |
| 20260507142023 | 59 | 305 | 1.7 | 6.1 | 0.00 | 0.22 | 0.18 | 86 | 1011.9 |
| 20260507141536 | 59 | 318 | 1.7 | 4.3 | 0.00 | 0.22 | 0.18 | 86 | 1011.7 |
| 20260507141016 | 59 | 309 | 2.6 | 6.1 | 0.00 | 0.22 | 0.18 | 87 | 1011.7 |
| 20260507140528 | 59 | 308 | 2.6 | 6.1 | 0.00 | 0.22 | 0.18 | 87 | 1011.6 |
| 20260507140024 | 58 | 321 | 1.7 | 6.1 | 0.00 | 0.22 | 0.18 | 88 | 1011.7 |
| 20260507135520 | 58 | 333 | 2.6 | 6.1 | 0.00 | 0.22 | 0.18 | 88 | 1011.7 |
| 20260507135032 | 58 | 325 | 1.7 | 4.3 | 0.00 | 0.22 | 0.18 | 88 | 1011.9 |
| 20260507134545 | 58 | 317 | 1.7 | 2.6 | 0.00 | 0.22 | 0.18 | 88 | 1011.9 |
| 20260507134023 | 58 | 328 | 1.7 | 4.3 | 0.00 | 0.22 | 0.18 | 87 | 1011.9 |
| 20260507133536 | 59 | 323 | 1.7 | 2.6 | 0.00 | 0.22 | 0.18 | 87 | 1012.0 |
| 20260507133016 | 59 | 327 | 1.7 | 2.6 | 0.00 | 0.22 | 0.18 | 87 | 1012.1 |
| 20260507132529 | 59 | 316 | 1.7 | 4.3 | 0.00 | 0.22 | 0.18 | 87 | 1012.1 |
| 20260507132040 | 59 | 325 | 1.7 | 4.3 | 0.00 | 0.22 | 0.18 | 87 | 1011.8 |
| 20260507131535 | 59 | 329 | 1.7 | 2.6 | 0.00 | 0.22 | 0.18 | 86 | 1011.9 |
| 20260507131017 | 59 | 318 | 0.9 | 4.3 | 0.00 | 0.22 | 0.18 | 86 | 1011.7 |
| 20260507130528 | 60 | 321 | 0.9 | 4.3 | 0.00 | 0.22 | 0.18 | 85 | 1011.7 |
| 20260507130039 | 60 | 341 | 0.9 | 4.3 | 0.00 | 0.22 | 0.18 | 85 | 1011.7 |
| 20260507125519 | 61 | 331 | 1.7 | 2.6 | 0.00 | 0.22 | 0.18 | 85 | 1011.7 |
| 20260507125031 | 60 | 321 | 0.9 | 4.3 | 0.00 | 0.22 | 0.18 | 84 | 1011.6 |
| 20260507124533 | 61 | 321 | 0.9 | 4.3 | 0.00 | 0.22 | 0.18 | 84 | 1011.5 |
| 20260507124039 | 61 | 329 | 0.9 | 1.7 | 0.00 | 0.22 | 0.18 | 83 | 1011.5 |
| 20260507123520 | 62 | 323 | 0.9 | 2.6 | 0.00 | 0.22 | 0.18 | 83 | 1011.5 |
| 20260507123031 | 61 | 326 | 0.9 | 1.7 | 0.00 | 0.22 | 0.18 | 84 | 1011.4 |
| 20260507122544 | 60 | 26 | 0.9 | 1.7 | 0.00 | 0.22 | 0.18 | 84 | 1011.4 |
| 20260507122024 | 60 | 330 | 0.9 | 2.6 | 0.00 | 0.22 | 0.18 | 86 | 1011.6 |
| 20260507121536 | 59 | 328 | 0.9 | 1.7 | 0.00 | 0.22 | 0.18 | 86 | 1011.5 |
| 20260507121016 | 59 | 322 | 0.9 | 2.6 | 0.00 | 0.22 | 0.18 | 86 | 1011.6 |
| 20260507120528 | 59 | 324 | 0.9 | 1.7 | 0.00 | 0.22 | 0.18 | 86 | 1011.6 |
| 20260507120040 | 59 | 327 | 0.9 | 1.7 | 0.00 | 0.22 | 0.18 | 86 | 1011.6 |
| 20260507115520 | 59 | 350 | 0.9 | 2.6 | 0.00 | 0.22 | 0.18 | 87 | 1011.7 |
| 20260507115032 | 58 | 354 | 0.0 | 1.7 | 0.00 | 0.22 | 0.18 | 88 | 1011.6 |
| 20260507114544 | 58 | 324 | 0.9 | 1.7 | 0.00 | 0.22 | 0.18 | 88 | 1011.6 |
| 20260507114024 | 58 | 335 | 0.0 | 1.7 | 0.00 | 0.22 | 0.18 | 87 | 1011.5 |
| 20260507113536 | 59 | 20 | 0.9 | 1.7 | 0.00 | 0.22 | 0.18 | 87 | 1011.6 |
| 20260507113016 | 59 | 342 | 0.9 | 1.7 | 0.00 | 0.22 | 0.18 | 88 | 1011.7 |
| 20260507112528 | 58 | 335 | 0.9 | 1.7 | 0.00 | 0.22 | 0.18 | 90 | 1011.7 |
| 20260507112040 | 57 | 325 | 0.9 | 4.3 | 0.00 | 0.22 | 0.18 | 91 | 1011.7 |
| 20260507111536 | 56 | 10 | 0.9 | 1.7 | 0.00 | 0.22 | 0.18 | 93 | 1011.8 |
| 20260507111016 | 56 | 24 | 0.9 | 1.7 | 0.00 | 0.22 | 0.18 | 94 | 1011.7 |
| 20260507110528 | 55 | 323 | 0.9 | 4.3 | 0.00 | 0.22 | 0.18 | 95 | 1011.6 |
| 20260507110040 | 56 | 328 | 0.9 | 2.6 | 0.00 | 0.22 | 0.18 | 96 | 1011.7 |
| 20260507105520 | 56 | 329 | 0.9 | 1.7 | 0.00 | 0.22 | 0.18 | 97 | 1011.5 |
| 20260507105032 | 55 | 81 | 0.9 | 1.7 | 0.00 | 0.22 | 0.18 | 97 | 1011.5 |
| 20260507104544 | 55 | 338 | 0.9 | 2.6 | 0.00 | 0.22 | 0.18 | 98 | 1011.4 |
| 20260507104024 | 55 | 27 | 0.9 | 2.6 | 0.00 | 0.22 | 0.18 | 98 | 1011.4 |
| 20260507103536 | 54 | 15 | 0.9 | 2.6 | 0.00 | 0.22 | 0.18 | 98 | 1011.3 |
| 20260507103017 | 54 | 321 | 0.9 | 0.9 | 0.00 | 0.22 | 0.18 | 98 | 1011.3 |
| 20260507102528 | 55 | 329 | 0.9 | 2.6 | 0.00 | 0.22 | 0.18 | 98 | 1011.3 |
| 20260507102026 | 54 | 357 | 0.0 | 1.7 | 0.00 | 0.22 | 0.18 | 98 | 1011.1 |
| 20260507101536 | 54 | 346 | 0.0 | 1.7 | 0.00 | 0.22 | 0.18 | 98 | 1011.1 |
| 20260507101016 | 54 | 59 | 0.9 | 2.6 | 0.00 | 0.22 | 0.18 | 98 | 1011.1 |
| 20260507100528 | 54 | 352 | 0.9 | 2.6 | 0.00 | 0.22 | 0.18 | 99 | 1010.9 |
| 20260507100040 | 53 | 49 | 1.7 | 2.6 | 0.00 | 0.22 | 0.18 | 98 | 1010.9 |
| 20260507095520 | 53 | 59 | 0.9 | 2.6 | 0.00 | 0.22 | 0.18 | 99 | 1010.9 |
| 20260507095032 | 54 | 358 | 0.9 | 2.6 | 0.00 | 0.22 | 0.18 | 99 | 1010.6 |
| 20260507094544 | 53 | 328 | 0.0 | 1.7 | 0.00 | 0.22 | 0.18 | 99 | 1010.7 |
| 20260507094024 | 53 | 328 | 0.9 | 2.6 | 0.00 | 0.22 | 0.18 | 99 | 1010.7 |
| 20260507093536 | 53 | 308 | 0.9 | 4.3 | 0.00 | 0.22 | 0.18 | 99 | 1010.8 |
| 20260507093016 | 52 | 317 | 0.9 | 2.6 | 0.00 | 0.22 | 0.18 | 99 | 1010.7 |
| 20260507092528 | 53 | 327 | 0.9 | 2.6 | 0.00 | 0.22 | 0.18 | 99 | 1010.7 |
| 20260507092040 | 53 | 321 | 0.9 | 1.7 | 0.00 | 0.22 | 0.18 | 99 | 1010.6 |
| 20260507091519 | 52 | 326 | 0.9 | 1.7 | 0.00 | 0.22 | 0.18 | 99 | 1010.6 |
| 20260507091032 | 52 | 318 | 0.9 | 1.7 | 0.00 | 0.22 | 0.18 | 99 | 1010.8 |
| 20260507090544 | 52 | 326 | 0.0 | 0.9 | 0.00 | 0.22 | 0.18 | 99 | 1010.6 |
| 20260507090024 | 52 | 324 | 0.0 | 1.7 | 0.00 | 0.22 | 0.18 | 99 | 1010.5 |
| 20260507085520 | 52 | 320 | 0.9 | 1.7 | 0.00 | 0.22 | 0.18 | 99 | 1010.4 |
| 20260507085032 | 53 | 334 | 0.9 | 1.7 | 0.00 | 0.22 | 0.18 | 99 | 1010.3 |
| 20260507084544 | 52 | 327 | 0.9 | 2.6 | 0.00 | 0.22 | 0.18 | 99 | 1010.3 |
| 20260507084024 | 52 | 340 | 1.7 | 2.6 | 0.00 | 0.22 | 0.18 | 99 | 1010.3 |
| 20260507083520 | 52 | 321 | 0.9 | 2.6 | 0.00 | 0.22 | 0.18 | 99 | 1010.1 |
| 20260507083032 | 52 | 326 | 0.9 | 2.6 | 0.00 | 0.22 | 0.18 | 99 | 1010.1 |
| 20260507082544 | 52 | 311 | 0.9 | 2.6 | 0.00 | 0.22 | 0.18 | 99 | 1009.9 |
| 20260507082024 | 52 | 325 | 0.9 | 2.6 | 0.00 | 0.22 | 0.18 | 99 | 1009.9 |
| 20260507081536 | 52 | 331 | 1.7 | 4.3 | 0.00 | 0.22 | 0.18 | 99 | 1009.9 |
| 20260507081032 | 52 | 317 | 1.7 | 2.6 | 0.00 | 0.22 | 0.18 | 99 | 1009.9 |
| 20260507080544 | 52 | 309 | 1.7 | 5.2 | 0.00 | 0.22 | 0.18 | 99 | 1009.9 |
| 20260507080033 | 52 | 328 | 1.7 | 2.6 | 0.00 | 0.22 | 0.18 | 99 | 1009.8 |
| 20260507075536 | 52 | 317 | 1.7 | 4.3 | 0.00 | 0.22 | 0.18 | 99 | 1009.8 |
| 20260507075017 | 52 | 325 | 1.7 | 4.3 | 0.00 | 0.22 | 0.18 | 99 | 1009.7 |
| 20260507074528 | 53 | 325 | 1.7 | 4.3 | 0.00 | 0.22 | 0.18 | 99 | 1009.5 |
| 20260507074040 | 53 | 316 | 1.7 | 4.3 | 0.00 | 0.22 | 0.18 | 99 | 1009.4 |
| 20260507073552 | 52 | 326 | 0.9 | 2.6 | 0.00 | 0.22 | 0.18 | 99 | 1009.5 |
| 20260507073016 | 53 | 324 | 1.7 | 4.3 | 0.00 | 0.22 | 0.18 | 99 | 1009.5 |
| 20260507072528 | 53 | 326 | 1.7 | 2.6 | 0.00 | 0.22 | 0.18 | 99 | 1009.5 |
| 20260507072024 | 53 | 335 | 0.9 | 1.7 | 0.00 | 0.22 | 0.18 | 99 | 1009.5 |
| 20260507071536 | 53 | 314 | 1.7 | 2.6 | 0.00 | 0.22 | 0.18 | 99 | 1009.5 |
| 20260507071016 | 53 | 332 | 1.7 | 4.3 | 0.00 | 0.22 | 0.18 | 99 | 1009.4 |
| 20260507070528 | 53 | 320 | 2.6 | 5.2 | 0.00 | 0.22 | 0.18 | 98 | 1009.2 |
| 20260507070040 | 53 | 322 | 1.7 | 4.3 | 0.02 | 0.22 | 0.18 | 98 | 1009.1 |
| 20260507065520 | 54 | 320 | 1.7 | 5.2 | 0.02 | 0.22 | 0.18 | 98 | 1009.1 |